sensor_id;sensor_type;location;lat;lon;timestamp;pressure;altitude;pressure_sealevel;temperature;humidity
11327;BME280;5718;42.138;24.762;2023-09-19T16:22:32;99507.50;;;26.39;57.26
11327;BME280;5718;42.138;24.762;2023-09-19T16:24:59;99506.31;;;26.16;56.61
11327;BME280;5718;42.138;24.762;2023-09-19T16:27:25;99513.59;;;26.27;55.32
11327;BME280;5718;42.138;24.762;2023-09-19T16:29:52;99513.41;;;26.30;57.97
11327;BME280;5718;42.138;24.762;2023-09-19T16:32:19;99505.09;;;25.93;58.94
11327;BME280;5718;42.138;24.762;2023-09-19T16:34:46;99508.25;;;25.86;58.32
11327;BME280;5718;42.138;24.762;2023-09-19T16:37:13;99504.78;;;25.98;58.45
11327;BME280;5718;42.138;24.762;2023-09-19T16:39:41;99509.00;;;26.02;59.83
11327;BME280;5718;42.138;24.762;2023-09-19T16:42:08;99507.19;;;26.02;59.70
11327;BME280;5718;42.138;24.762;2023-09-19T16:44:37;99514.63;;;25.83;59.92
11327;BME280;5718;42.138;24.762;2023-09-19T16:47:04;99514.47;;;25.56;63.11
11327;BME280;5718;42.138;24.762;2023-09-19T16:49:30;99510.19;;;25.39;64.34
11327;BME280;5718;42.138;24.762;2023-09-19T16:51:57;99511.66;;;25.59;66.32
11327;BME280;5718;42.138;24.762;2023-09-19T16:54:24;99514.78;;;25.66;67.03
11327;BME280;5718;42.138;24.762;2023-09-19T16:56:52;99521.16;;;25.49;67.63
11327;BME280;5718;42.138;24.762;2023-09-19T16:59:18;99518.03;;;24.97;70.51
11327;BME280;5718;42.138;24.762;2023-09-19T17:01:48;99524.34;;;24.80;73.18
11327;BME280;5718;42.138;24.762;2023-09-19T17:04:15;99526.59;;;24.72;71.83
11327;BME280;5718;42.138;24.762;2023-09-19T17:06:42;99528.47;;;24.70;74.29
11327;BME280;5718;42.138;24.762;2023-09-19T17:09:11;99528.22;;;24.74;76.09
11327;BME280;5718;42.138;24.762;2023-09-19T17:11:39;99535.66;;;24.83;76.83
11327;BME280;5718;42.138;24.762;2023-09-19T17:14:07;99532.63;;;24.89;77.83
11327;BME280;5718;42.138;24.762;2023-09-19T17:16:34;99540.69;;;24.88;78.08
11327;BME280;5718;42.138;24.762;2023-09-19T17:19:02;99542.97;;;24.64;80.89
11327;BME280;5718;42.138;24.762;2023-09-19T17:21:31;99542.63;;;24.54;81.64
11327;BME280;5718;42.138;24.762;2023-09-19T17:23:59;99540.38;;;24.31;83.70
11327;BME280;5718;42.138;24.762;2023-09-19T17:26:25;99552.59;;;24.35;85.06
11327;BME280;5718;42.138;24.762;2023-09-19T17:28:53;99547.22;;;24.19;86.42
11327;BME280;5718;42.138;24.762;2023-09-19T17:31:22;99550.31;;;24.12;89.97
11327;BME280;5718;42.138;24.762;2023-09-19T17:33:50;99554.00;;;24.25;90.71
11327;BME280;5718;42.138;24.762;2023-09-19T17:36:19;99558.53;;;24.23;90.77
11327;BME280;5718;42.138;24.762;2023-09-19T17:38:47;99552.31;;;23.91;93.93
11327;BME280;5718;42.138;24.762;2023-09-19T17:41:15;99557.88;;;23.86;95.57
11327;BME280;5718;42.138;24.762;2023-09-19T17:43:42;99565.06;;;23.49;96.26
11327;BME280;5718;42.138;24.762;2023-09-19T17:46:10;99564.41;;;23.63;98.37
11327;BME280;5718;42.138;24.762;2023-09-19T17:48:41;99567.38;;;23.90;96.12
11327;BME280;5718;42.138;24.762;2023-09-19T17:51:09;99567.06;;;23.96;96.28
11327;BME280;5718;42.138;24.762;2023-09-19T17:53:37;99567.72;;;23.84;97.60
11327;BME280;5718;42.138;24.762;2023-09-19T17:56:04;99562.59;;;23.64;99.71
11327;BME280;5718;42.138;24.762;2023-09-19T17:58:34;99562.88;;;23.58;100.00
11327;BME280;5718;42.138;24.762;2023-09-19T18:01:08;99565.72;;;23.20;100.00
11327;BME280;5718;42.138;24.762;2023-09-19T18:03:36;99567.22;;;23.25;100.00
11327;BME280;5718;42.138;24.762;2023-09-19T18:06:05;99560.59;;;23.34;100.00
11327;BME280;5718;42.138;24.762;2023-09-19T18:08:32;99571.47;;;23.45;100.00
11327;BME280;5718;42.138;24.762;2023-09-19T18:10:59;99575.47;;;23.37;100.00
11327;BME280;5718;42.138;24.762;2023-09-19T18:13:26;99575.78;;;23.31;100.00
11327;BME280;5718;42.138;24.762;2023-09-19T18:15:53;99575.22;;;23.41;100.00
11327;BME280;5718;42.138;24.762;2023-09-19T18:18:20;99573.84;;;23.34;100.00
11327;BME280;5718;42.138;24.762;2023-09-19T18:20:47;99577.09;;;23.05;100.00
11327;BME280;5718;42.138;24.762;2023-09-19T18:23:16;99586.06;;;23.19;100.00
11327;BME280;5718;42.138;24.762;2023-09-19T18:25:43;99577.25;;;22.83;100.00
11327;BME280;5718;42.138;24.762;2023-09-19T18:28:11;99586.88;;;22.85;100.00
11327;BME280;5718;42.138;24.762;2023-09-19T18:30:38;99585.81;;;23.07;100.00
11327;BME280;5718;42.138;24.762;2023-09-19T18:33:05;99587.59;;;22.89;100.00
11327;BME280;5718;42.138;24.762;2023-09-19T18:35:32;99581.44;;;23.06;100.00
11327;BME280;5718;42.138;24.762;2023-09-19T18:38:00;99586.56;;;22.91;100.00
11327;BME280;5718;42.138;24.762;2023-09-19T18:40:28;99592.28;;;22.82;100.00
11327;BME280;5718;42.138;24.762;2023-09-19T18:42:55;99588.59;;;22.67;100.00
11327;BME280;5718;42.138;24.762;2023-09-19T18:45:22;99590.38;;;22.67;100.00
11327;BME280;5718;42.138;24.762;2023-09-19T18:47:50;99589.66;;;22.63;100.00
11327;BME280;5718;42.138;24.762;2023-09-19T18:50:17;99595.03;;;22.62;100.00
11327;BME280;5718;42.138;24.762;2023-09-19T18:52:45;99592.97;;;22.50;100.00
11327;BME280;5718;42.138;24.762;2023-09-19T18:55:12;99590.13;;;22.35;100.00
11327;BME280;5718;42.138;24.762;2023-09-19T18:57:43;99599.34;;;22.27;100.00
11327;BME280;5718;42.138;24.762;2023-09-19T19:00:11;99600.41;;;22.23;100.00
11327;BME280;5718;42.138;24.762;2023-09-19T19:02:41;99590.19;;;22.15;100.00
11327;BME280;5718;42.138;24.762;2023-09-19T19:05:08;99591.91;;;22.16;100.00
11327;BME280;5718;42.138;24.762;2023-09-19T19:07:36;99585.47;;;22.22;100.00
11327;BME280;5718;42.138;24.762;2023-09-19T19:10:03;99601.06;;;22.28;100.00
11327;BME280;5718;42.138;24.762;2023-09-19T19:12:31;99595.84;;;22.06;100.00
11327;BME280;5718;42.138;24.762;2023-09-19T19:15:00;99601.41;;;22.20;100.00
11327;BME280;5718;42.138;24.762;2023-09-19T19:17:27;99593.47;;;22.20;100.00
11327;BME280;5718;42.138;24.762;2023-09-19T19:19:55;99606.13;;;22.13;100.00
11327;BME280;5718;42.138;24.762;2023-09-19T19:22:22;99607.00;;;22.14;100.00
11327;BME280;5718;42.138;24.762;2023-09-19T19:24:49;99604.56;;;22.09;100.00
11327;BME280;5718;42.138;24.762;2023-09-19T19:27:17;99607.63;;;21.99;100.00
11327;BME280;5718;42.138;24.762;2023-09-19T19:29:46;99615.31;;;22.05;100.00
11327;BME280;5718;42.138;24.762;2023-09-19T19:32:14;99614.00;;;21.95;100.00
11327;BME280;5718;42.138;24.762;2023-09-19T19:34:41;99619.56;;;22.09;100.00
11327;BME280;5718;42.138;24.762;2023-09-19T19:37:08;99612.44;;;22.11;100.00
11327;BME280;5718;42.138;24.762;2023-09-19T19:39:38;99619.00;;;22.01;100.00
11327;BME280;5718;42.138;24.762;2023-09-19T19:42:06;99618.13;;;21.81;100.00
11327;BME280;5718;42.138;24.762;2023-09-19T19:44:33;99624.66;;;21.73;100.00
11327;BME280;5718;42.138;24.762;2023-09-19T19:47:01;99616.34;;;21.62;100.00
11327;BME280;5718;42.138;24.762;2023-09-19T19:49:29;99621.75;;;21.79;100.00
11327;BME280;5718;42.138;24.762;2023-09-19T19:51:58;99626.53;;;21.71;100.00
11327;BME280;5718;42.138;24.762;2023-09-19T19:54:25;99623.13;;;21.87;100.00
11327;BME280;5718;42.138;24.762;2023-09-19T19:56:52;99620.00;;;21.98;100.00
11327;BME280;5718;42.138;24.762;2023-09-19T19:59:19;99620.00;;;21.98;100.00
11327;BME280;5718;42.138;24.762;2023-09-19T20:01:46;99625.53;;;21.73;100.00
11327;BME280;5718;42.138;24.762;2023-09-19T20:04:13;99624.06;;;21.66;100.00
11327;BME280;5718;42.138;24.762;2023-09-19T20:06:42;99627.13;;;21.77;100.00
11327;BME280;5718;42.138;24.762;2023-09-19T20:09:10;99622.69;;;21.78;100.00
11327;BME280;5718;42.138;24.762;2023-09-19T20:11:39;99624.72;;;21.92;100.00
11327;BME280;5718;42.138;24.762;2023-09-19T20:14:05;99630.88;;;22.12;100.00
11327;BME280;5718;42.138;24.762;2023-09-19T20:16:33;99628.28;;;21.91;100.00
11327;BME280;5718;42.138;24.762;2023-09-19T20:19:02;99631.44;;;21.99;100.00
11327;BME280;5718;42.138;24.762;2023-09-19T20:21:30;99626.41;;;21.93;100.00
11327;BME280;5718;42.138;24.762;2023-09-19T20:23:58;99631.94;;;21.68;100.00
11327;BME280;5718;42.138;24.762;2023-09-19T20:26:32;99637.19;;;21.69;100.00
11327;BME280;5718;42.138;24.762;2023-09-19T20:28:59;99647.22;;;21.61;100.00
11327;BME280;5718;42.138;24.762;2023-09-19T20:31:26;99642.91;;;21.38;100.00
11327;BME280;5718;42.138;24.762;2023-09-19T20:33:53;99644.78;;;21.35;100.00
11327;BME280;5718;42.138;24.762;2023-09-19T20:36:20;99637.28;;;21.46;100.00
11327;BME280;5718;42.138;24.762;2023-09-19T20:38:46;99641.50;;;21.50;100.00
11327;BME280;5718;42.138;24.762;2023-09-19T20:41:15;99639.53;;;21.75;100.00
11327;BME280;5718;42.138;24.762;2023-09-19T20:43:42;99639.28;;;21.61;100.00
11327;BME280;5718;42.138;24.762;2023-09-19T20:46:09;99638.44;;;21.61;100.00
11327;BME280;5718;42.138;24.762;2023-09-19T20:48:36;99637.19;;;21.69;100.00
11327;BME280;5718;42.138;24.762;2023-09-19T20:51:06;99632.25;;;21.80;100.00
11327;BME280;5718;42.138;24.762;2023-09-19T20:53:35;99634.31;;;21.94;100.00
11327;BME280;5718;42.138;24.762;2023-09-19T20:56:02;99619.91;;;22.01;100.00
11327;BME280;5718;42.138;24.762;2023-09-19T20:58:29;99622.47;;;22.03;100.00
11327;BME280;5718;42.138;24.762;2023-09-19T21:01:00;99624.59;;;21.74;100.00
11327;BME280;5718;42.138;24.762;2023-09-19T21:03:26;99638.22;;;21.65;100.00
11327;BME280;5718;42.138;24.762;2023-09-19T21:06:00;99631.75;;;21.72;100.00
11327;BME280;5718;42.138;24.762;2023-09-19T21:08:29;99628.38;;;21.48;100.00
11327;BME280;5718;42.138;24.762;2023-09-19T21:10:57;99634.91;;;21.40;100.00
11327;BME280;5718;42.138;24.762;2023-09-19T21:13:23;99630.84;;;21.31;100.00
11327;BME280;5718;42.138;24.762;2023-09-19T21:15:52;99629.94;;;21.10;100.00
11327;BME280;5718;42.138;24.762;2023-09-19T21:18:18;99629.75;;;21.15;100.00
11327;BME280;5718;42.138;24.762;2023-09-19T21:20:45;99630.06;;;21.29;100.00
11327;BME280;5718;42.138;24.762;2023-09-19T21:23:12;99635.97;;;21.36;100.00
11327;BME280;5718;42.138;24.762;2023-09-19T21:25:39;99632.66;;;21.30;100.00
11327;BME280;5718;42.138;24.762;2023-09-19T21:28:06;99632.72;;;21.49;100.00
11327;BME280;5718;42.138;24.762;2023-09-19T21:30:34;99629.75;;;21.37;100.00
11327;BME280;5718;42.138;24.762;2023-09-19T21:33:03;99628.75;;;21.39;100.00
11327;BME280;5718;42.138;24.762;2023-09-19T21:35:30;99635.09;;;21.35;100.00
11327;BME280;5718;42.138;24.762;2023-09-19T21:37:57;99632.13;;;21.21;100.00
11327;BME280;5718;42.138;24.762;2023-09-19T21:40:24;99642.16;;;21.13;100.00
11327;BME280;5718;42.138;24.762;2023-09-19T21:42:51;99647.19;;;21.41;100.00
11327;BME280;5718;42.138;24.762;2023-09-19T21:45:17;99654.06;;;21.45;100.00
11327;BME280;5718;42.138;24.762;2023-09-19T21:47:44;99647.41;;;21.36;100.00
11327;BME280;5718;42.138;24.762;2023-09-19T21:50:12;99649.03;;;21.17;100.00
11327;BME280;5718;42.138;24.762;2023-09-19T21:52:40;99663.63;;;21.27;100.00
11327;BME280;5718;42.138;24.762;2023-09-19T21:55:08;99663.69;;;21.24;100.00
11327;BME280;5718;42.138;24.762;2023-09-19T21:57:35;99671.16;;;21.14;100.00
11327;BME280;5718;42.138;24.762;2023-09-19T22:00:03;99678.84;;;21.20;100.00
11327;BME280;5718;42.138;24.762;2023-09-19T22:02:30;99684.28;;;21.16;100.00
11327;BME280;5718;42.138;24.762;2023-09-19T22:04:58;99698.13;;;21.22;100.00
11327;BME280;5718;42.138;24.762;2023-09-19T22:07:27;99698.25;;;21.19;100.00
11327;BME280;5718;42.138;24.762;2023-09-19T22:09:54;99693.44;;;21.07;100.00
11327;BME280;5718;42.138;24.762;2023-09-19T22:12:21;99693.94;;;20.95;100.00
11327;BME280;5718;42.138;24.762;2023-09-19T22:14:50;99702.88;;;20.91;100.00
11327;BME280;5718;42.138;24.762;2023-09-19T22:17:17;99711.38;;;20.99;100.00
11327;BME280;5718;42.138;24.762;2023-09-19T22:19:44;99712.00;;;21.06;100.00
11327;BME280;5718;42.138;24.762;2023-09-19T22:22:11;99718.28;;;21.03;100.00
11327;BME280;5718;42.138;24.762;2023-09-19T22:24:40;99710.22;;;21.06;100.00
11327;BME280;5718;42.138;24.762;2023-09-19T22:27:07;99721.72;;;21.05;100.00
11327;BME280;5718;42.138;24.762;2023-09-19T22:29:37;99722.25;;;21.13;100.00
11327;BME280;5718;42.138;24.762;2023-09-19T22:32:08;99723.28;;;21.09;100.00
11327;BME280;5718;42.138;24.762;2023-09-19T22:34:35;99742.97;;;21.02;100.00
11327;BME280;5718;42.138;24.762;2023-09-19T22:37:01;99741.72;;;20.89;100.00
11327;BME280;5718;42.138;24.762;2023-09-19T22:39:29;99747.97;;;20.86;100.00
11327;BME280;5718;42.138;24.762;2023-09-19T22:41:57;99757.53;;;20.65;100.00
11327;BME280;5718;42.138;24.762;2023-09-19T22:44:25;99768.03;;;20.67;100.00
11327;BME280;5718;42.138;24.762;2023-09-19T22:46:53;99771.28;;;20.50;100.00
11327;BME280;5718;42.138;24.762;2023-09-19T22:49:21;99777.66;;;20.69;100.00
11327;BME280;5718;42.138;24.762;2023-09-19T22:51:51;99788.41;;;20.38;100.00
11327;BME280;5718;42.138;24.762;2023-09-19T22:54:24;99782.59;;;20.29;100.00
11327;BME280;5718;42.138;24.762;2023-09-19T22:56:52;99778.97;;;20.06;100.00
11327;BME280;5718;42.138;24.762;2023-09-19T22:59:21;99802.16;;;19.97;100.00
11327;BME280;5718;42.138;24.762;2023-09-19T23:01:47;99800.53;;;19.66;100.00
11327;BME280;5718;42.138;24.762;2023-09-19T23:04:16;99800.38;;;19.71;100.00
11327;BME280;5718;42.138;24.762;2023-09-19T23:06:45;99792.19;;;19.50;100.00
11327;BME280;5718;42.138;24.762;2023-09-19T23:09:16;99796.41;;;19.28;100.00
11327;BME280;5718;42.138;24.762;2023-09-19T23:11:48;99795.53;;;19.29;100.00
11327;BME280;5718;42.138;24.762;2023-09-19T23:14:15;99797.94;;;19.35;100.00
11327;BME280;5718;42.138;24.762;2023-09-19T23:16:44;99791.75;;;19.36;100.00
11327;BME280;5718;42.138;24.762;2023-09-19T23:19:21;99797.94;;;19.36;100.00
11327;BME280;5718;42.138;24.762;2023-09-19T23:21:54;99790.88;;;19.37;100.00
11327;BME280;5718;42.138;24.762;2023-09-19T23:24:23;99792.59;;;19.38;100.00
11327;BME280;5718;42.138;24.762;2023-09-19T23:26:52;99791.28;;;19.51;100.00
11327;BME280;5718;42.138;24.762;2023-09-19T23:29:23;99792.56;;;19.40;100.00
11327;BME280;5718;42.138;24.762;2023-09-19T23:31:51;99784.69;;;19.38;100.00
11327;BME280;5718;42.138;24.762;2023-09-19T23:34:18;99779.94;;;19.49;100.00
11327;BME280;5718;42.138;24.762;2023-09-19T23:36:45;99779.94;;;19.49;100.00
11327;BME280;5718;42.138;24.762;2023-09-19T23:39:11;99772.84;;;19.51;100.00
11327;BME280;5718;42.138;24.762;2023-09-19T23:41:39;99766.56;;;19.57;100.00
11327;BME280;5718;42.138;24.762;2023-09-19T23:44:06;99764.03;;;19.80;100.00
11327;BME280;5718;42.138;24.762;2023-09-19T23:46:35;99758.75;;;19.80;100.00
11327;BME280;5718;42.138;24.762;2023-09-19T23:49:05;99758.59;;;19.85;100.00
11327;BME280;5718;42.138;24.762;2023-09-19T23:51:36;99759.31;;;19.90;100.00
11327;BME280;5718;42.138;24.762;2023-09-19T23:54:04;99757.38;;;19.95;100.00
11327;BME280;5718;42.138;24.762;2023-09-19T23:56:31;99744.47;;;19.87;100.00
11327;BME280;5718;42.138;24.762;2023-09-19T23:58:58;99744.09;;;19.98;100.00
